Time;durP1;ratioP1;P1;durP2;ratioP2;P2;SDS_P1;SDS_P2;PMS_P1;PMS_P2;Temp;Humidity;BMP_temperature;BMP_pressure;BME280_temperature;BME280_humidity;BME280_pressure;Samples;Min_cycle;Max_cycle;Signal;HPM_P1;HPM_P2
2022/07/10 00:02:11;;;;;;;1.33;1.10;;;;;;;13.43;65.78;102687.28;5012916;28;20045;-85
2022/07/10 00:04:36;;;;;;;1.30;1.00;;;;;;;13.40;65.36;102693.34;5012523;28;20102;-86
2022/07/10 00:07:02;;;;;;;1.10;1.00;;;;;;;13.37;65.77;102690.72;5013023;28;20454;-85
2022/07/10 00:09:28;;;;;;;1.08;1.08;;;;;;;13.36;65.54;102691.56;5012843;28;20030;-85
2022/07/10 00:11:53;;;;;;;0.93;0.93;;;;;;;13.36;65.70;102693.28;5011796;28;20121;-85
2022/07/10 00:14:20;;;;;;;1.27;1.17;;;;;;;13.34;65.98;102684.63;5012804;28;20453;-85
2022/07/10 00:16:45;;;;;;;1.75;1.27;;;;;;;13.34;66.18;102690.69;5013229;28;20113;-85
2022/07/10 00:19:10;;;;;;;1.30;1.20;;;;;;;13.31;66.07;102682.84;5012244;28;20113;-86
2022/07/10 00:21:35;;;;;;;1.73;1.20;;;;;;;13.28;66.17;102685.47;5012811;28;20025;-86
2022/07/10 00:24:02;;;;;;;1.27;1.17;;;;;;;13.24;66.06;102686.31;5012970;28;20113;-85
2022/07/10 00:26:27;;;;;;;1.10;1.10;;;;;;;13.20;66.60;102688.06;5012862;28;20014;-85
2022/07/10 00:28:53;;;;;;;1.13;0.90;;;;;;;13.15;66.78;102686.31;5012693;28;20049;-85
2022/07/10 00:31:18;;;;;;;1.27;1.17;;;;;;;13.09;66.92;102688.00;5012740;28;20068;-85
2022/07/10 00:33:44;;;;;;;1.63;1.20;;;;;;;13.04;66.95;102686.25;5012595;28;20064;-86
2022/07/10 00:36:09;;;;;;;1.40;1.30;;;;;;;12.98;66.94;102687.97;5012803;28;20041;-86
2022/07/10 00:38:34;;;;;;;0.90;0.90;;;;;;;12.94;67.17;102687.97;5013135;28;20069;-85
2022/07/10 00:40:59;;;;;;;1.13;1.10;;;;;;;12.90;67.24;102683.59;5011639;28;20113;-86
2022/07/10 00:43:25;;;;;;;1.60;1.30;;;;;;;12.88;67.59;102682.72;5013170;28;20030;-85
2022/07/10 00:45:50;;;;;;;1.10;1.10;;;;;;;12.86;67.32;102680.09;5012666;28;20037;-85
2022/07/10 00:48:15;;;;;;;1.30;1.20;;;;;;;12.86;67.40;102677.50;5011908;28;20033;-85
2022/07/10 00:50:42;;;;;;;1.20;1.10;;;;;;;12.83;67.74;102675.72;5013033;28;20037;-85
2022/07/10 00:53:08;;;;;;;1.45;1.27;;;;;;;12.80;67.57;102677.44;5012544;28;20376;-85
2022/07/10 00:55:36;;;;;;;1.00;1.00;;;;;;;12.77;67.86;102670.50;5013128;28;20037;-85
2022/07/10 00:58:01;;;;;;;1.10;1.00;;;;;;;12.75;67.71;102674.81;5016719;28;20029;-85
2022/07/10 01:00:27;;;;;;;1.53;1.20;;;;;;;12.75;67.85;102671.38;5015636;28;20021;-85
2022/07/10 01:02:53;;;;;;;1.00;1.00;;;;;;;12.75;67.87;102669.63;5016385;28;20022;-85
2022/07/10 01:05:19;;;;;;;0.87;0.87;;;;;;;12.77;68.18;102665.28;5016262;28;20684;-85
2022/07/10 01:07:44;;;;;;;1.10;1.10;;;;;;;12.77;68.38;102654.88;5015392;28;20060;-85
2022/07/10 01:10:09;;;;;;;1.03;0.90;;;;;;;12.79;68.32;102649.66;5016083;28;20030;-86
2022/07/10 01:12:36;;;;;;;1.17;0.90;;;;;;;12.79;68.30;102652.25;5016271;28;20462;-85
2022/07/10 01:15:01;;;;;;;1.15;1.00;;;;;;;12.77;68.35;102643.59;5014931;28;20057;-85
2022/07/10 01:17:28;;;;;;;0.90;0.90;;;;;;;12.73;68.40;102642.69;5015929;28;20060;-85
2022/07/10 01:19:54;;;;;;;1.50;1.00;;;;;;;12.70;68.65;102637.47;5015741;28;20164;-85
2022/07/10 01:22:19;;;;;;;1.73;1.30;;;;;;;12.70;68.59;102641.81;5015162;28;20120;-85
2022/07/10 01:24:44;;;;;;;1.47;0.93;;;;;;;12.64;68.82;102642.66;5015779;28;20022;-85
2022/07/10 01:27:09;;;;;;;1.87;1.00;;;;;;;12.59;68.86;102637.41;5015877;28;20104;-85
2022/07/10 01:29:36;;;;;;;0.97;0.97;;;;;;;12.55;69.06;102632.19;5014914;28;20462;-85
2022/07/10 01:32:02;;;;;;;1.27;1.17;;;;;;;12.51;68.93;102639.97;5015532;28;20038;-85
2022/07/10 01:34:27;;;;;;;1.13;1.00;;;;;;;12.50;69.04;102637.38;5015526;28;20133;-85
2022/07/10 01:36:53;;;;;;;0.87;0.87;;;;;;;12.47;69.17;102637.34;5014670;28;20037;-85
2022/07/10 01:39:18;;;;;;;1.10;1.00;;;;;;;12.44;69.28;102645.16;5015510;28;20073;-85
2022/07/10 01:41:44;;;;;;;1.13;0.87;;;;;;;12.42;69.25;102645.13;5015339;28;20068;-85
2022/07/10 01:44:09;;;;;;;1.30;1.20;;;;;;;12.41;69.25;102648.59;5014961;28;20032;-85
2022/07/10 01:46:34;;;;;;;1.03;0.93;;;;;;;12.39;69.22;102641.66;5015633;28;20524;-85
2022/07/10 01:49:00;;;;;;;1.07;0.97;;;;;;;12.35;69.19;102643.38;5015504;28;20386;-85
2022/07/10 01:51:25;;;;;;;1.13;1.13;;;;;;;12.32;69.62;102640.72;5014888;28;20041;-85
2022/07/10 01:53:50;;;;;;;1.43;1.33;;;;;;;12.31;69.62;102637.28;5015295;28;20390;-85
2022/07/10 01:56:16;;;;;;;0.93;0.93;;;;;;;12.29;69.65;102643.31;5015199;28;20029;-85
2022/07/10 01:58:41;;;;;;;1.17;1.10;;;;;;;12.28;69.81;102644.16;5014782;28;20470;-85
2022/07/10 02:01:07;;;;;;;1.33;1.23;;;;;;;12.29;69.73;102635.50;5014595;28;20026;-85
2022/07/10 02:06:17;;;;;;;1.15;1.15;;;;;;;12.25;69.91;102633.75;5015475;28;20045;-85
2022/07/10 02:08:42;;;;;;;0.87;0.87;;;;;;;12.21;69.75;102635.47;5015022;28;20022;-85
2022/07/10 02:11:08;;;;;;;1.23;0.80;;;;;;;12.20;70.20;102634.59;5014109;28;20034;-85
2022/07/10 02:13:33;;;;;;;1.27;1.20;;;;;;;12.18;70.10;102640.66;5015431;28;20033;-85
2022/07/10 02:15:58;;;;;;;1.50;1.10;;;;;;;12.13;70.06;102630.22;5014710;28;20080;-85
2022/07/10 02:18:24;;;;;;;1.57;1.23;;;;;;;12.10;70.07;102635.38;5014420;28;20401;-85
2022/07/10 02:20:51;;;;;;;2.10;1.10;;;;;;;12.07;70.45;102637.97;5014581;28;20363;-84
2022/07/10 02:23:16;;;;;;;1.00;0.90;;;;;;;12.01;70.47;102635.31;5014710;28;20030;-85
2022/07/10 02:25:41;;;;;;;1.00;1.00;;;;;;;11.99;70.57;102635.28;5014499;28;20034;-85
2022/07/10 02:28:10;;;;;;;0.97;0.73;;;;;;;11.97;70.81;102639.59;5014418;28;20022;-85
2022/07/10 02:30:36;;;;;;;0.77;0.77;;;;;;;11.94;70.82;102636.09;5014404;28;20387;-85
2022/07/10 02:33:01;;;;;;;0.90;0.90;;;;;;;11.90;70.92;102633.47;5013769;28;20033;-85
2022/07/10 02:35:26;;;;;;;0.90;0.90;;;;;;;11.89;70.87;102634.34;5014626;28;20500;-85
2022/07/10 02:37:52;;;;;;;0.80;0.80;;;;;;;11.87;70.85;102635.19;5014254;28;20030;-85
2022/07/10 02:40:17;;;;;;;1.27;1.00;;;;;;;11.86;71.06;102631.72;5013751;28;20026;-85
2022/07/10 02:42:42;;;;;;;0.73;0.73;;;;;;;11.85;71.09;102629.97;5014261;28;20045;-85
2022/07/10 02:45:08;;;;;;;0.93;0.70;;;;;;;11.84;71.15;102628.22;5014336;28;20085;-85
2022/07/10 02:47:33;;;;;;;1.10;1.00;;;;;;;11.86;70.97;102621.31;5013326;28;20025;-85
2022/07/10 02:49:59;;;;;;;1.23;1.00;;;;;;;11.89;71.18;102620.44;5014015;28;20053;-84
2022/07/10 02:52:24;;;;;;;1.00;1.00;;;;;;;11.94;71.13;102616.16;5014585;28;20049;-84
2022/07/10 02:54:50;;;;;;;1.03;0.93;;;;;;;11.97;71.27;102629.19;5013101;28;20512;-84
2022/07/10 02:57:16;;;;;;;1.20;1.10;;;;;;;12.00;71.24;102624.03;5014234;28;20026;-84
2022/07/10 02:59:41;;;;;;;1.13;1.03;;;;;;;12.03;71.30;102615.41;5014333;28;20022;-85
2022/07/10 03:02:07;;;;;;;1.20;1.10;;;;;;;12.09;71.05;102610.22;5013208;28;20025;-84
2022/07/10 03:04:32;;;;;;;1.47;1.27;;;;;;;12.14;71.36;102612.84;5014198;28;20137;-85
2022/07/10 03:06:58;;;;;;;0.80;0.80;;;;;;;12.17;71.51;102615.47;5013006;28;20028;-85
2022/07/10 03:09:23;;;;;;;0.73;0.73;;;;;;;12.16;71.43;102609.38;5014114;28;20018;-84
2022/07/10 03:11:48;;;;;;;0.70;0.70;;;;;;;12.16;71.59;102619.81;5014020;28;20022;-85
2022/07/10 03:14:13;;;;;;;0.70;0.70;;;;;;;12.16;72.20;102619.81;5013313;28;20389;-85
2022/07/10 03:16:39;;;;;;;0.67;0.67;;;;;;;12.17;71.79;102620.69;5014020;28;20032;-85
2022/07/10 03:19:04;;;;;;;1.93;0.93;;;;;;;12.17;71.45;102620.69;5013078;28;20030;-85
2022/07/10 03:21:30;;;;;;;1.00;0.93;;;;;;;12.17;71.58;102620.69;5012787;28;20034;-85
2022/07/10 03:23:56;;;;;;;0.80;0.70;;;;;;;12.13;71.87;102617.19;5013489;28;20461;-85
2022/07/10 03:26:21;;;;;;;0.63;0.63;;;;;;;12.14;72.36;102620.66;5013946;28;20110;-85
2022/07/10 03:28:47;;;;;;;0.80;0.80;;;;;;;12.10;71.71;102622.38;5012530;28;20060;-85
2022/07/10 03:31:12;;;;;;;0.80;0.80;;;;;;;12.09;72.14;102614.56;5012759;28;20410;-85
2022/07/10 03:33:38;;;;;;;0.90;0.90;;;;;;;12.07;72.09;102617.13;5013734;28;20038;-85
2022/07/10 03:36:04;;;;;;;1.23;1.08;;;;;;;12.09;71.91;102607.63;5012574;28;20492;-84
2022/07/10 03:38:30;;;;;;;0.82;0.82;;;;;;;12.09;72.02;102599.81;5013674;28;20022;-85
2022/07/10 03:40:55;;;;;;;1.53;1.40;;;;;;;12.12;72.35;102599.84;5013436;28;20018;-85
2022/07/10 03:43:21;;;;;;;1.07;0.97;;;;;;;12.13;71.89;102598.97;5013073;28;20036;-85
2022/07/10 03:45:46;;;;;;;1.37;1.10;;;;;;;12.13;72.27;102606.78;5013196;28;20089;-84
2022/07/10 03:48:24;;;;;;;1.05;1.00;;;;;;;12.13;72.18;102600.69;5013147;28;20056;-84
2022/07/10 03:50:53;;;;;;;1.48;1.20;;;;;;;12.15;72.15;102601.59;4992671;28;20026;-84
2022/07/10 03:53:19;;;;;;;0.95;0.95;;;;;;;12.15;72.16;102604.19;4993703;28;20022;-84
2022/07/10 03:55:44;;;;;;;1.30;1.20;;;;;;;12.17;72.45;102605.94;4993579;28;20046;-85
2022/07/10 03:58:10;;;;;;;1.00;1.00;;;;;;;12.16;72.46;102603.31;4992402;28;20030;-84
2022/07/10 04:00:37;;;;;;;1.50;1.00;;;;;;;12.18;72.58;102605.06;4993747;28;20030;-85
2022/07/10 04:03:05;;;;;;;0.70;0.70;;;;;;;12.19;72.65;102599.00;4993516;28;20106;-84
2022/07/10 04:05:31;;;;;;;1.05;0.93;;;;;;;12.19;72.51;102600.75;4992788;28;20034;-85
2022/07/10 04:07:58;;;;;;;0.90;0.90;;;;;;;12.22;72.36;102608.56;4993304;28;20113;-85
2022/07/10 04:10:27;;;;;;;0.85;0.85;;;;;;;12.26;72.42;102599.06;4992797;28;20779;-84
2022/07/10 04:12:53;;;;;;;1.00;0.95;;;;;;;12.29;72.34;102594.75;4993167;28;20031;-85
2022/07/10 04:15:19;;;;;;;0.90;0.90;;;;;;;12.32;73.02;102605.19;5011302;28;20033;-84
2022/07/10 04:17:45;;;;;;;0.73;0.73;;;;;;;12.35;72.92;102604.31;5011990;28;20058;-84
2022/07/10 04:20:11;;;;;;;1.07;1.00;;;;;;;12.39;73.02;102606.06;5013002;28;20049;-84
2022/07/10 04:22:36;;;;;;;0.77;0.75;;;;;;;12.42;72.81;102597.41;5012684;28;20381;-85
2022/07/10 04:25:03;;;;;;;0.73;0.73;;;;;;;12.47;73.26;102574.84;5011924;28;20112;-85
2022/07/10 04:27:28;;;;;;;;;;;;;;;12.51;73.05;102580.06;5013105;28;20532;-85
2022/07/10 04:29:53;;;;;;;0.97;0.80;;;;;;;12.55;73.05;102585.31;5012951;28;19917;-84
2022/07/10 04:32:19;;;;;;;0.80;0.80;;;;;;;12.58;73.06;102595.75;5016745;28;20030;-84
2022/07/10 04:34:44;;;;;;;0.83;0.70;;;;;;;12.62;72.74;102600.09;5017273;28;20027;-84
2022/07/10 04:37:10;;;;;;;0.63;0.60;;;;;;;12.65;72.75;102592.28;5016341;28;20038;-84
2022/07/10 04:39:37;;;;;;;0.60;0.60;;;;;;;12.71;73.00;102604.47;5016274;28;20496;-84
2022/07/10 04:42:03;;;;;;;0.52;0.52;;;;;;;12.74;73.55;102600.13;5016469;28;20018;-84
2022/07/10 04:44:29;;;;;;;0.70;0.70;;;;;;;12.75;73.33;102591.47;5016550;28;20037;-84
2022/07/10 04:46:54;;;;;;;0.63;0.63;;;;;;;12.78;73.43;102585.38;5015557;28;20401;-84
2022/07/10 04:49:19;;;;;;;0.60;0.60;;;;;;;12.82;73.11;102590.63;5016961;28;20014;-85
2022/07/10 04:51:45;;;;;;;0.40;0.40;;;;;;;12.85;73.78;102597.59;5016899;28;20026;-85
2022/07/10 04:54:10;;;;;;;0.50;0.50;;;;;;;12.89;73.86;102601.91;5015301;28;20168;-85
2022/07/10 04:56:35;;;;;;;0.77;0.60;;;;;;;12.93;74.04;102602.81;5016754;28;20022;-85
2022/07/10 04:59:01;;;;;;;0.60;0.60;;;;;;;12.95;73.44;102595.84;5015964;28;20021;-85
2022/07/10 05:01:26;;;;;;;0.47;0.47;;;;;;;13.00;73.48;102595.91;5015715;28;20527;-84
2022/07/10 05:03:51;;;;;;;0.40;0.40;;;;;;;13.04;73.10;102582.88;5015884;28;20026;-84
2022/07/10 05:06:16;;;;;;;0.80;0.80;;;;;;;13.11;73.27;102586.38;5016233;28;20052;-85
2022/07/10 05:08:42;;;;;;;0.40;0.40;;;;;;;13.18;73.47;102603.75;5015659;28;20159;-85
2022/07/10 05:11:07;;;;;;;1.03;1.00;;;;;;;13.21;74.17;102608.09;5016050;28;20033;-85
2022/07/10 05:13:32;;;;;;;1.73;0.87;;;;;;;13.23;73.83;102599.41;5015504;28;20481;-84
2022/07/10 05:15:57;;;;;;;0.90;0.90;;;;;;;13.32;73.10;102610.72;5015704;28;20029;-84
2022/07/10 05:18:23;;;;;;;0.70;0.70;;;;;;;13.37;73.11;102612.47;5016149;28;20381;-85
2022/07/10 05:20:49;;;;;;;0.80;0.77;;;;;;;13.42;73.25;102605.53;5015010;28;20072;-85
2022/07/10 05:23:15;;;;;;;0.30;0.30;;;;;;;13.48;73.41;102612.50;5015867;28;20033;-85
2022/07/10 05:25:40;;;;;;;0.52;0.50;;;;;;;13.50;73.05;102602.09;5015864;28;20025;-86
2022/07/10 05:28:06;;;;;;;0.47;0.47;;;;;;;13.50;72.79;102600.34;5014971;28;20084;-87
2022/07/10 05:30:31;;;;;;;0.47;0.47;;;;;;;13.51;72.81;102596.88;5016257;28;20064;-87
2022/07/10 05:32:57;;;;;;;1.40;0.60;;;;;;;13.54;72.79;102604.69;5016351;28;20076;-87
2022/07/10 05:35:22;;;;;;;0.70;0.70;;;;;;;13.56;75.37;102607.31;5016193;28;20469;-85
2022/07/10 05:37:47;;;;;;;0.90;0.90;;;;;;;13.57;74.17;102606.44;5016003;28;20028;-91
2022/07/10 05:40:13;;;;;;;0.70;0.70;;;;;;;13.61;73.90;102602.97;5016802;28;20037;-90
2022/07/10 05:42:38;;;;;;;2.27;1.30;;;;;;;13.64;74.73;102600.34;5015636;28;20069;-89
2022/07/10 05:45:05;;;;;;;2.97;1.53;;;;;;;13.68;76.51;102601.22;5016258;28;20029;-89
2022/07/10 05:47:30;;;;;;;2.85;1.60;;;;;;;13.72;75.54;102606.44;5016842;28;20032;-89
2022/07/10 05:49:56;;;;;;;1.97;1.30;;;;;;;13.78;74.61;102604.69;5015879;28;20022;-93
2022/07/10 05:52:21;;;;;;;1.50;0.93;;;;;;;13.82;74.83;102609.03;5016867;28;20425;-90
2022/07/10 05:54:46;;;;;;;1.87;1.47;;;;;;;13.85;75.57;102607.31;5016534;28;20030;-90
2022/07/10 05:57:11;;;;;;;1.57;1.47;;;;;;;13.93;76.46;102609.03;5016748;28;20034;-90
2022/07/10 05:59:37;;;;;;;1.10;1.10;;;;;;;13.99;75.45;102607.28;5016382;28;20030;-90
2022/07/10 06:02:02;;;;;;;4.57;1.80;;;;;;;14.08;75.42;102606.41;5016242;28;20032;-92
2022/07/10 06:04:28;;;;;;;2.10;1.50;;;;;;;14.18;75.06;102604.66;5016581;28;20040;-91
2022/07/10 06:06:53;;;;;;;1.70;1.43;;;;;;;14.26;74.96;102597.66;5016216;28;20446;-91
2022/07/10 06:09:18;;;;;;;2.30;1.50;;;;;;;14.31;74.63;102590.66;5016531;28;20037;-92
2022/07/10 06:11:45;;;;;;;2.63;1.57;;;;;;;14.45;74.56;102600.22;5015992;28;20037;-91
2022/07/10 06:14:11;;;;;;;1.75;1.23;;;;;;;14.92;74.28;102596.56;5015880;28;20026;-92
2022/07/10 06:16:37;;;;;;;4.57;1.90;;;;;;;16.40;70.65;102592.69;5015727;28;20037;-91
2022/07/10 06:19:02;;;;;;;3.07;1.53;;;;;;;18.11;67.89;102605.03;5015936;28;20078;-91
2022/07/10 06:21:27;;;;;;;2.63;1.50;;;;;;;18.74;63.89;102599.38;5017769;28;20030;-89
2022/07/10 06:23:52;;;;;;;6.10;1.73;;;;;;;18.30;60.88;102596.78;5017008;28;20045;-93
2022/07/10 06:26:18;;;;;;;3.53;1.73;;;;;;;17.93;64.26;102600.94;5015975;28;20109;-92
2022/07/10 06:28:43;;;;;;;4.37;1.60;;;;;;;18.01;62.01;102603.47;5016152;28;20382;-93
2022/07/10 06:31:08;;;;;;;7.37;2.20;;;;;;;17.83;61.56;102600.25;5015263;28;20081;-86
2022/07/10 06:33:35;;;;;;;5.53;1.83;;;;;;;17.74;63.03;102603.91;5015149;28;20099;-85
2022/07/10 06:36:01;;;;;;;3.28;1.65;;;;;;;17.99;62.40;102594.75;5014217;28;20121;-85
2022/07/10 06:38:26;;;;;;;2.17;1.27;;;;;;;18.27;64.00;102591.59;5014406;28;20505;-87
2022/07/10 06:40:52;;;;;;;5.77;1.60;;;;;;;18.61;61.61;102588.28;5013421;28;20029;-85
2022/07/10 06:43:17;;;;;;;1.48;1.38;;;;;;;18.80;62.69;102588.75;5014203;28;20018;-85
2022/07/10 06:45:44;;;;;;;2.07;1.30;;;;;;;19.15;62.04;102592.34;5013340;28;20030;-85
2022/07/10 06:48:10;;;;;;;2.67;1.30;;;;;;;19.31;59.45;102597.25;5014088;28;20548;-86
2022/07/10 06:50:36;;;;;;;3.72;1.80;;;;;;;19.07;59.81;102600.44;5014482;28;20034;-84
2022/07/10 06:53:02;;;;;;;2.75;1.33;;;;;;;19.17;58.81;102598.44;5012263;28;20470;-85
2022/07/10 06:55:28;;;;;;;;;;;;;;;19.05;59.73;102589.06;5014661;28;20038;-85
2022/07/10 06:57:53;;;;;;;2.28;1.48;;;;;;;18.92;60.50;102592.84;5011742;28;20388;-84
2022/07/10 07:00:19;;;;;;;5.25;1.88;;;;;;;18.65;59.59;102593.44;5012897;28;20037;-84
2022/07/10 07:02:45;;;;;;;2.73;1.17;;;;;;;18.51;60.50;102598.09;5017005;28;20454;-84
2022/07/10 07:05:10;;;;;;;2.77;1.33;;;;;;;18.36;60.54;102594.88;5013150;28;20030;-87
2022/07/10 07:07:36;;;;;;;1.67;1.20;;;;;;;18.37;61.95;102590.50;5013970;28;20041;-86
2022/07/10 07:10:03;;;;;;;1.67;1.47;;;;;;;18.39;59.67;102588.72;5013995;28;20470;-88
2022/07/10 07:12:28;;;;;;;4.00;1.65;;;;;;;18.25;61.43;102588.13;5014237;28;20026;-85
2022/07/10 07:14:54;;;;;;;2.93;1.30;;;;;;;18.26;61.45;102593.34;5012962;28;20033;-85
2022/07/10 07:17:33;;;;;;;2.37;1.40;;;;;;;18.22;62.52;102594.31;5014076;28;20381;-85
2022/07/10 07:25:26;;;;;;;3.38;1.70;;;;;;;17.95;62.31;102609.66;5014146;28;20496;-85
2022/07/10 07:27:52;;;;;;;1.90;1.50;;;;;;;17.97;62.95;102607.91;5012432;28;20025;-84
2022/07/10 07:30:17;;;;;;;2.63;1.20;;;;;;;18.03;63.08;102606.94;5013104;28;20081;-85
2022/07/10 07:32:44;;;;;;;2.90;1.30;;;;;;;18.02;63.38;102610.47;5013596;28;20026;-85
2022/07/10 07:35:13;;;;;;;3.72;1.60;;;;;;;17.90;62.55;102606.28;5012412;28;20026;-85
2022/07/10 07:37:39;;;;;;;2.45;1.40;;;;;;;17.75;63.80;102603.00;5013341;28;20470;-85
2022/07/10 07:40:07;;;;;;;2.00;1.55;;;;;;;17.75;64.00;102600.38;5013460;28;20033;-82
2022/07/10 07:42:32;;;;;;;1.45;1.27;;;;;;;17.90;64.45;102601.03;5012682;28;20026;-83
2022/07/10 07:44:57;;;;;;;2.57;1.40;;;;;;;17.93;63.71;102608.81;5011989;28;20096;-83
2022/07/10 07:47:23;;;;;;;5.17;1.97;;;;;;;17.84;63.32;102609.88;5012972;28;20381;-83
2022/07/10 07:49:48;;;;;;;4.03;2.03;;;;;;;17.71;63.69;102606.56;5012027;28;20022;-85
2022/07/10 07:52:14;;;;;;;6.07;2.70;;;;;;;17.44;63.40;102614.03;5013236;28;20498;-83
2022/07/10 07:54:39;;;;;;;6.13;2.57;;;;;;;17.28;64.24;102608.13;5012848;28;20056;-82
2022/07/10 07:57:05;;;;;;;4.90;2.50;;;;;;;17.19;64.63;102607.44;5012391;28;20037;-82
2022/07/10 07:59:30;;;;;;;7.63;2.73;;;;;;;16.98;64.67;102604.22;5012914;28;20037;-84
2022/07/10 08:01:55;;;;;;;4.53;2.50;;;;;;;16.95;64.95;102599.88;5012993;28;20040;-83
2022/07/10 08:04:20;;;;;;;4.97;2.83;;;;;;;16.91;65.44;102605.16;5012325;28;20038;-83
2022/07/10 08:06:46;;;;;;;7.63;2.57;;;;;;;16.85;65.81;102600.84;5013140;28;20026;-83
2022/07/10 08:09:11;;;;;;;3.57;2.40;;;;;;;16.88;65.48;102603.44;5012840;28;20180;-83
2022/07/10 08:11:36;;;;;;;4.03;2.27;;;;;;;16.98;65.67;102604.22;5012100;28;20061;-83
2022/07/10 08:14:02;;;;;;;2.33;2.10;;;;;;;17.05;65.96;102600.63;5012574;28;20030;-83
2022/07/10 08:16:27;;;;;;;3.40;2.20;;;;;;;17.06;66.23;102599.72;5012296;28;20025;-84
2022/07/10 08:18:52;;;;;;;6.83;2.67;;;;;;;16.98;65.73;102596.38;5012398;28;20058;-82
2022/07/10 08:21:17;;;;;;;4.83;2.30;;;;;;;16.98;66.56;102593.75;5012991;28;20026;-83
2022/07/10 08:23:43;;;;;;;6.97;2.30;;;;;;;16.92;65.56;102599.91;5011855;28;20079;-84
2022/07/10 08:26:08;;;;;;;3.43;2.10;;;;;;;16.97;66.13;102600.72;5012695;28;20061;-83
2022/07/10 08:28:33;;;;;;;3.90;2.13;;;;;;;17.03;66.34;102602.41;5012818;28;20032;-83
2022/07/10 08:30:59;;;;;;;2.33;1.90;;;;;;;17.12;66.39;102601.41;5011942;28;20049;-84
2022/07/10 08:33:24;;;;;;;2.57;1.90;;;;;;;17.23;66.48;102602.09;5013036;28;20022;-83
2022/07/10 08:35:49;;;;;;;2.80;1.70;;;;;;;17.36;66.33;102608.03;5012224;28;20038;-84
2022/07/10 08:38:14;;;;;;;4.20;2.00;;;;;;;17.47;65.91;102597.38;5012358;28;20022;-83
2022/07/10 08:40:40;;;;;;;6.63;2.90;;;;;;;17.49;65.40;102597.31;5012679;28;20109;-84
2022/07/10 08:43:06;;;;;;;5.13;2.70;;;;;;;17.50;65.12;102597.31;5012714;28;20500;-83
2022/07/10 08:45:35;;;;;;;5.57;2.93;;;;;;;17.47;64.94;102596.47;5012028;28;20033;-83
2022/07/10 08:48:05;;;;;;;4.55;2.60;;;;;;;17.52;65.25;102600.75;5012715;28;20030;-83
2022/07/10 08:50:33;;;;;;;2.50;2.30;;;;;;;17.58;65.28;102600.69;5012766;28;20026;-84
2022/07/10 08:53:09;;;;;;;2.85;2.00;;;;;;;17.64;65.61;102599.72;5011110;28;20088;-83
2022/07/10 08:55:36;;;;;;;3.67;2.33;;;;;;;17.60;65.19;102609.41;5012192;28;20034;-83
2022/07/10 08:58:02;;;;;;;;;;;;;;;17.59;65.36;102612.03;5012638;28;20030;-83
2022/07/10 09:00:27;;;;;;;3.42;1.90;;;;;;;17.57;65.43;102619.06;5012045;28;19914;-83
2022/07/10 09:02:54;;;;;;;4.07;2.20;;;;;;;17.54;65.67;102611.25;5012359;28;20462;-83
2022/07/10 09:05:19;;;;;;;5.40;2.30;;;;;;;17.51;65.37;102616.56;5012415;28;20431;-84
2022/07/10 09:07:45;;;;;;;2.80;2.10;;;;;;;17.55;65.51;102608.59;5012115;28;20105;-84
2022/07/10 09:10:11;;;;;;;1.70;1.60;;;;;;;17.64;65.86;102614.56;5012366;28;20433;-84
2022/07/10 09:12:54;;;;;;;1.75;1.60;;;;;;;17.65;66.08;102609.31;5012592;28;20053;-84
2022/07/10 09:15:22;;;;;;;2.95;1.65;;;;;;;17.69;66.15;102600.47;5012302;28;20121;-83
2022/07/10 09:18:01;;;;;;;2.58;1.55;;;;;;;17.76;65.68;102598.63;5015213;28;20445;-82
2022/07/10 09:20:34;;;;;;;1.63;1.50;;;;;;;17.90;65.47;102591.38;5015408;28;20484;-82
2022/07/10 09:23:16;;;;;;;3.25;2.20;;;;;;;17.99;64.44;102594.75;5015634;28;20493;-82
2022/07/10 09:25:41;;;;;;;4.38;2.17;;;;;;;18.02;63.87;102589.44;5016079;28;20018;-83
2022/07/10 09:28:07;;;;;;;3.83;2.10;;;;;;;18.00;64.01;102589.47;5015060;28;20018;-82
2022/07/10 09:30:37;;;;;;;4.37;2.20;;;;;;;17.86;64.00;102583.56;5015778;28;20450;-82
2022/07/10 09:33:17;;;;;;;4.75;2.20;;;;;;;17.78;64.16;102585.47;5015548;28;20036;-82
2022/07/10 09:36:04;;;;;;;5.75;2.53;;;;;;;17.62;64.93;102592.75;5014935;28;20034;-82
2022/07/10 09:38:39;;;;;;;2.10;1.83;;;;;;;17.64;65.55;102585.69;5011094;28;20097;-82
2022/07/10 09:41:15;;;;;;;3.70;1.80;;;;;;;17.67;65.63;102583.03;5019267;28;20049;-82
2022/07/10 09:44:03;;;;;;;2.97;1.90;;;;;;;17.79;65.78;102579.34;5025312;28;20030;-82
2022/07/10 09:46:36;;;;;;;1.90;1.70;;;;;;;18.03;65.72;102578.88;5022055;28;20432;-82
2022/07/10 09:49:13;;;;;;;1.63;1.52;;;;;;;18.36;65.36;102571.22;5022125;28;20021;-82
2022/07/10 09:51:43;;;;;;;1.60;1.50;;;;;;;18.77;64.65;102567.75;5019603;28;20088;-82
2022/07/10 09:54:10;;;;;;;1.83;1.60;;;;;;;19.03;63.09;102568.97;5014707;28;20028;-82
2022/07/10 09:56:55;;;;;;;3.28;2.05;;;;;;;19.10;62.57;102573.19;5014260;28;20036;-82
2022/07/10 09:59:21;;;;;;;4.10;1.92;;;;;;;19.02;62.15;102572.50;5013093;28;20024;-82
2022/07/10 10:01:51;;;;;;;2.50;1.87;;;;;;;18.98;62.48;102569.06;5014644;28;20385;-82
2022/07/10 10:04:23;;;;;;;2.00;1.63;;;;;;;18.95;62.73;102563.88;5010515;28;20351;-82
2022/07/10 10:06:56;;;;;;;2.33;1.90;;;;;;;18.80;61.23;102565.94;5019730;28;20032;-82
2022/07/10 10:09:25;;;;;;;4.30;2.30;;;;;;;18.70;63.08;102567.03;5024151;28;20029;-83
2022/07/10 10:11:58;;;;;;;2.20;2.00;;;;;;;18.87;63.70;102565.78;5014667;28;20022;-83
2022/07/10 10:14:24;;;;;;;2.22;2.00;;;;;;;19.18;63.05;102563.31;5015263;28;20365;-82
2022/07/10 10:16:49;;;;;;;3.88;2.53;;;;;;;19.40;59.87;102573.31;5013616;28;20109;-84
2022/07/10 10:22:01;;;;;;;3.75;2.70;;;;;;;19.36;59.34;102569.06;5013686;28;20312;-83
2022/07/10 10:24:30;;;;;;;5.32;2.83;;;;;;;19.35;58.94;102568.16;5014306;28;20029;-83
2022/07/10 10:26:56;;;;;;;5.22;2.63;;;;;;;19.38;60.09;102565.47;5013864;28;20039;-82
2022/07/10 10:29:21;;;;;;;5.13;2.77;;;;;;;19.51;58.74;102557.28;5014981;28;20377;-82
2022/07/10 10:31:47;;;;;;;4.00;2.57;;;;;;;19.43;58.71;102552.19;5014484;28;20116;-83
2022/07/10 10:34:12;;;;;;;6.03;2.70;;;;;;;19.28;59.14;102563.97;5014629;28;20088;-82
2022/07/10 10:36:47;;;;;;;3.87;2.60;;;;;;;19.29;61.30;102561.28;5014899;28;20022;-82
2022/07/10 10:39:13;;;;;;;2.30;2.10;;;;;;;19.44;61.76;102561.81;5013471;28;20036;-81
2022/07/10 10:41:38;;;;;;;3.03;2.03;;;;;;;19.68;60.79;102556.81;5014481;28;20026;-82
2022/07/10 10:44:06;;;;;;;3.07;1.90;;;;;;;19.97;60.92;102563.97;5014534;28;20044;-82
2022/07/10 10:46:31;;;;;;;2.10;1.90;;;;;;;20.26;60.15;102557.00;5014405;28;20045;-82
2022/07/10 10:49:07;;;;;;;2.33;1.60;;;;;;;20.49;57.89;102547.56;5013998;28;20026;-82
2022/07/10 10:52:01;;;;;;;2.13;1.70;;;;;;;20.63;59.84;102558.56;5013681;28;20441;-82
2022/07/10 10:54:29;;;;;;;1.70;1.60;;;;;;;20.70;59.02;102553.97;5014214;28;20029;-84
2022/07/10 10:57:13;;;;;;;1.58;1.42;;;;;;;20.84;57.59;102553.56;5013700;28;20100;-82
2022/07/10 11:00:07;;;;;;;2.40;1.73;;;;;;;20.75;56.77;102549.41;5013599;28;20022;-82
2022/07/10 11:02:34;;;;;;;2.53;1.65;;;;;;;20.77;58.74;102544.97;5012157;28;20057;-83
2022/07/10 11:05:18;;;;;;;1.75;1.52;;;;;;;20.83;54.97;102549.19;5014284;28;20106;-85
2022/07/10 11:07:59;;;;;;;2.70;1.90;;;;;;;20.57;55.06;102547.31;5014193;28;20101;-83
2022/07/10 11:10:38;;;;;;;2.90;1.88;;;;;;;20.51;57.20;102541.31;5013995;28;20041;-83
2022/07/10 11:13:07;;;;;;;1.65;1.40;;;;;;;20.59;57.97;102545.50;5012588;28;20453;-83
2022/07/10 11:15:36;;;;;;;2.15;1.83;;;;;;;20.65;57.24;102535.63;5009482;28;20037;-85
2022/07/10 11:18:06;;;;;;;1.45;1.30;;;;;;;20.66;57.76;102537.34;5012983;28;20033;-85
2022/07/10 11:20:34;;;;;;;1.65;1.55;;;;;;;20.66;58.33;102533.84;5010119;28;20405;-84
2022/07/10 11:23:21;;;;;;;1.40;1.30;;;;;;;20.78;56.43;102535.25;5013440;28;20033;-84
2022/07/10 11:26:07;;;;;;;1.90;1.80;;;;;;;20.71;55.54;102531.06;4998255;28;20026;-84
2022/07/10 11:28:46;;;;;;;2.05;1.45;;;;;;;20.73;57.89;102531.88;5010360;28;20028;-84
2022/07/10 11:31:12;;;;;;;1.70;1.60;;;;;;;20.85;57.57;102535.94;5012769;28;20062;-84
2022/07/10 11:33:43;;;;;;;2.40;1.80;;;;;;;20.97;56.91;102539.06;4996575;28;20018;-84
2022/07/10 11:36:18;;;;;;;1.65;1.55;;;;;;;21.07;57.86;102531.69;5005140;28;20479;-83
2022/07/10 11:38:44;;;;;;;2.28;1.70;;;;;;;21.25;56.70;102530.22;5004232;28;20036;-84